Terminal Aerodrome Forecast
Issued by NWS

Home | Current Version | Previous Version | Text Only | Print | Product List | Glossary On
Versions: 1 2 3 4 5 6 7 8 9 10 11 12 13 14 15 16
000
FTUS43 KDVN 260520
TAFBRL
TAF
KBRL 260520Z 2606/2706 19005KT P6SM SCT060
     FM261000 18004KT P6SM VCTS BKN040CB
     FM261400 20008KT P6SM SCT050 PROB30 2700/2704 4SM TSRA
      BKN040CB=

USA.gov is the U.S. government's official web portal to all federal, state and local government web resources and services.